Time;durP1;ratioP1;P1;durP2;ratioP2;P2;SDS_P1;SDS_P2;PMS_P1;PMS_P2;Temp;Humidity;BMP_temperature;BMP_pressure;BME280_temperature;BME280_humidity;BME280_pressure;Samples;Min_cycle;Max_cycle;Signal;HPM_P1;HPM_P2
2023/09/09 00:00:30;;;;;;;2.00;1.38;;;21.60;1.00;;;;;;5083375;28;20428;-75
2023/09/09 00:02:57;;;;;;;1.58;1.33;;;21.60;1.00;;;;;;5085188;28;20093;-75
2023/09/09 00:05:29;;;;;;;1.75;1.35;;;21.50;18.50;;;;;;5084698;28;20048;-75
2023/09/09 00:07:55;;;;;;;2.40;1.50;;;21.40;28.20;;;;;;5084343;28;20059;-74
2023/09/09 00:10:22;;;;;;;1.50;1.20;;;21.40;67.30;;;;;;5084595;28;20135;-75
2023/09/09 00:12:49;;;;;;;1.80;1.30;;;21.30;99.90;;;;;;5084674;28;20071;-75
2023/09/09 00:15:16;;;;;;;2.05;1.38;;;21.30;99.90;;;;;;5084722;28;20066;-75
2023/09/09 00:17:43;;;;;;;1.40;1.10;;;21.20;99.90;;;;;;5086984;28;20109;-76
2023/09/09 00:20:12;;;;;;;1.50;1.17;;;21.20;99.90;;;;;;5088231;28;20044;-75
2023/09/09 00:22:39;;;;;;;2.25;1.70;;;21.20;1.00;;;;;;5071723;28;20056;-76
2023/09/09 00:25:07;;;;;;;1.98;1.40;;;21.30;10.60;;;;;;5089564;28;20064;-75
2023/09/09 00:27:33;;;;;;;2.03;1.65;;;21.20;1.00;;;;;;5087862;28;20052;-75
2023/09/09 00:30:00;;;;;;;1.63;1.40;;;21.30;1.00;;;;;;5083553;28;20044;-76
2023/09/09 00:32:27;;;;;;;1.60;1.38;;;21.30;1.00;;;;;;5086561;28;20116;-76
2023/09/09 00:34:54;;;;;;;2.00;1.60;;;21.20;1.00;;;;;;5087446;28;20061;-75
2023/09/09 00:37:21;;;;;;;1.92;1.63;;;21.20;15.60;;;;;;5087915;28;20083;-76
2023/09/09 00:39:50;;;;;;;2.13;1.45;;;21.20;99.90;;;;;;5083788;28;20064;-76
2023/09/09 00:42:18;;;;;;;1.80;1.35;;;21.20;51.60;;;;;;5066116;28;20045;-75
2023/09/09 00:44:45;;;;;;;1.98;1.70;;;21.20;80.30;;;;;;5083295;28;20051;-76
2023/09/09 00:47:12;;;;;;;1.60;1.48;;;21.10;99.90;;;;;;5086421;28;20052;-75
2023/09/09 00:49:39;;;;;;;1.58;1.40;;;21.10;93.30;;;;;;5085636;28;20054;-75
2023/09/09 00:52:06;;;;;;;1.67;1.30;;;21.10;99.90;;;;;;5086967;28;20131;-75
2023/09/09 00:54:33;;;;;;;1.88;1.42;;;21.10;99.90;;;;;;5086561;28;20052;-74
2023/09/09 00:57:02;;;;;;;1.55;1.25;;;21.10;99.90;;;;;;5085996;28;20040;-77
2023/09/09 00:59:31;;;;;;;2.10;1.77;;;21.10;1.00;;;;;;5069777;28;20052;-77
2023/09/09 01:01:57;;;;;;;1.85;1.50;;;21.00;1.00;;;;;;5087284;28;20064;-78
2023/09/09 01:04:24;;;;;;;1.95;1.42;;;21.00;99.90;;;;;;5082649;28;20051;-77
2023/09/09 01:06:52;;;;;;;1.27;1.15;;;21.00;99.90;;;;;;5084815;28;20659;-77
2023/09/09 01:09:18;;;;;;;1.90;1.50;;;21.00;99.90;;;;;;5088182;28;20652;-77
2023/09/09 01:11:45;;;;;;;2.75;2.10;;;21.00;99.90;;;;;;5088022;28;20613;-77
2023/09/09 01:14:13;;;;;;;2.00;1.60;;;21.00;99.90;;;;;;5086914;28;20522;-78
2023/09/09 01:16:40;;;;;;;2.40;1.90;;;20.90;1.00;;;;;;5070344;28;20075;-77
2023/09/09 01:19:08;;;;;;;1.98;1.42;;;20.90;1.00;;;;;;5066970;28;20441;-77
2023/09/09 01:21:34;;;;;;;2.63;1.70;;;20.90;1.00;;;;;;5085122;28;20519;-76
2023/09/09 01:24:01;;;;;;;2.40;1.77;;;20.80;1.00;;;;;;5083298;28;20056;-77
2023/09/09 01:26:28;;;;;;;1.58;1.42;;;20.70;99.90;;;;;;5084970;28;20146;-77
2023/09/09 01:28:55;;;;;;;2.08;1.83;;;20.70;99.90;;;;;;5085343;28;20056;-76
2023/09/09 01:31:22;;;;;;;1.90;1.70;;;20.70;99.90;;;;;;5084135;28;20052;-77
2023/09/09 01:33:50;;;;;;;2.28;1.88;;;20.70;77.00;;;;;;5065797;28;20044;-75
2023/09/09 01:36:17;;;;;;;2.58;1.52;;;20.60;95.50;;;;;;5077814;28;20097;-75
2023/09/09 01:38:44;;;;;;;2.28;1.70;;;20.50;99.90;;;;;;5067284;28;20059;-75
2023/09/09 01:41:11;;;;;;;3.97;2.30;;;20.50;99.90;;;;;;5089079;28;20044;-75
2023/09/09 01:43:37;;;;;;;4.38;2.53;;;20.50;1.00;;;;;;5088389;28;20079;-74
2023/09/09 01:46:04;;;;;;;2.20;1.85;;;20.50;94.20;;;;;;5088470;28;20052;-75
2023/09/09 01:48:31;;;;;;;3.65;1.90;;;20.50;99.90;;;;;;5087465;28;20048;-75
2023/09/09 01:50:58;;;;;;;3.72;1.83;;;20.50;99.90;;;;;;5086733;28;20113;-75
2023/09/09 01:53:25;;;;;;;3.78;2.40;;;20.40;99.90;;;;;;5085809;28;20093;-76
2023/09/09 01:55:51;;;;;;;2.40;1.85;;;20.40;99.90;;;;;;5086136;28;20087;-75
2023/09/09 01:58:18;;;;;;;3.75;2.58;;;20.30;1.00;;;;;;5086227;28;20047;-75
2023/09/09 02:00:45;;;;;;;3.47;1.92;;;20.30;99.90;;;;;;5087569;28;20102;-75
2023/09/09 02:03:12;;;;;;;2.65;1.90;;;20.20;1.00;;;;;;5087509;28;20060;-75
2023/09/09 02:05:39;;;;;;;2.45;1.85;;;20.20;74.20;;;;;;5087698;28;20059;-75
2023/09/09 02:08:06;;;;;;;2.63;1.60;;;20.20;99.90;;;;;;5085609;28;20044;-75
2023/09/09 02:10:33;;;;;;;2.60;1.70;;;20.20;99.90;;;;;;5086120;28;20125;-76
2023/09/09 02:13:00;;;;;;;3.80;1.55;;;20.10;99.90;;;;;;5085823;28;20048;-75
2023/09/09 02:15:26;;;;;;;1.88;1.48;;;20.10;4.90;;;;;;5069717;28;20105;-75
2023/09/09 02:17:53;;;;;;;2.50;1.55;;;20.20;81.50;;;;;;5086939;28;20048;-75
2023/09/09 02:20:20;;;;;;;2.03;1.60;;;20.20;60.70;;;;;;5085667;28;20532;-74
2023/09/09 02:22:47;;;;;;;2.95;1.60;;;20.20;53.90;;;;;;5086749;28;20109;-76
2023/09/09 02:25:14;;;;;;;3.38;1.98;;;20.20;1.00;;;;;;5086959;28;20056;-77
2023/09/09 02:27:40;;;;;;;2.63;1.63;;;20.20;19.80;;;;;;5085881;28;20052;-77
2023/09/09 02:30:07;;;;;;;3.13;1.60;;;20.20;26.70;;;;;;5087051;28;20052;-77
2023/09/09 02:32:34;;;;;;;1.90;1.15;;;20.20;48.90;;;;;;5087118;28;20047;-77
2023/09/09 02:35:01;;;;;;;1.75;1.42;;;20.10;82.50;;;;;;5086693;28;20462;-76
2023/09/09 02:37:28;;;;;;;1.65;1.38;;;20.20;99.90;;;;;;5068799;28;20048;-77
2023/09/09 02:39:54;;;;;;;1.83;1.58;;;20.20;99.90;;;;;;5085466;28;20116;-77
2023/09/09 02:42:22;;;;;;;1.95;1.73;;;20.10;99.90;;;;;;5085221;28;20189;-77
2023/09/09 02:44:50;;;;;;;7.10;1.98;;;20.10;99.90;;;;;;5067580;28;20094;-77
2023/09/09 02:47:16;;;;;;;6.68;1.75;;;20.00;99.90;;;;;;5086717;28;20044;-76
2023/09/09 02:49:43;;;;;;;4.18;1.77;;;20.00;99.90;;;;;;5086774;28;20191;-77
2023/09/09 02:52:10;;;;;;;4.22;1.60;;;20.00;99.90;;;;;;5085170;28;20048;-77
2023/09/09 02:54:38;;;;;;;3.30;1.60;;;20.00;99.90;;;;;;5051768;28;20051;-76
2023/09/09 02:57:05;;;;;;;2.08;1.52;;;20.00;99.90;;;;;;5085581;28;20040;-77
2023/09/09 02:59:35;;;;;;;2.53;1.30;;;20.00;99.90;;;;;;5083906;28;20062;-77
2023/09/09 03:02:03;;;;;;;1.83;1.30;;;19.90;99.90;;;;;;5086678;28;20089;-76
2023/09/09 03:04:29;;;;;;;2.28;1.60;;;19.90;99.90;;;;;;5068378;28;20097;-77
2023/09/09 03:06:56;;;;;;;5.07;1.45;;;19.80;99.90;;;;;;5085331;28;20131;-77
2023/09/09 03:09:23;;;;;;;2.33;1.67;;;19.80;99.90;;;;;;5084945;28;20055;-77
2023/09/09 03:11:50;;;;;;;3.40;1.70;;;19.70;99.90;;;;;;5084776;28;20137;-78
2023/09/09 03:14:17;;;;;;;2.05;1.55;;;19.70;1.00;;;;;;5085220;28;20048;-77
2023/09/09 03:16:44;;;;;;;3.40;1.40;;;19.70;1.00;;;;;;5086124;28;20048;-76
2023/09/09 03:19:11;;;;;;;2.67;1.85;;;19.70;1.00;;;;;;5086033;28;20059;-77
2023/09/09 03:21:38;;;;;;;2.10;1.70;;;19.70;1.00;;;;;;5086446;28;20040;-77
2023/09/09 03:24:05;;;;;;;1.48;1.33;;;19.70;7.10;;;;;;5084217;28;20063;-77
2023/09/09 03:26:32;;;;;;;5.53;2.10;;;19.70;9.90;;;;;;5084566;28;20050;-77
2023/09/09 03:28:59;;;;;;;2.50;1.60;;;19.60;27.20;;;;;;5083983;28;20075;-77
2023/09/09 03:31:26;;;;;;;2.08;1.60;;;19.60;29.90;;;;;;5086277;28;20539;-76
2023/09/09 03:33:53;;;;;;;4.82;1.90;;;19.60;54.80;;;;;;5067993;28;20055;-76
2023/09/09 03:36:20;;;;;;;4.97;2.25;;;19.60;86.20;;;;;;5068444;28;20139;-76
2023/09/09 03:38:47;;;;;;;3.70;1.58;;;19.60;99.90;;;;;;5084543;28;20052;-76
2023/09/09 03:41:13;;;;;;;2.67;1.80;;;19.60;99.90;;;;;;5084671;28;20740;-75
2023/09/09 03:43:41;;;;;;;1.95;1.38;;;19.60;99.90;;;;;;5083551;28;20101;-76
2023/09/09 03:46:09;;;;;;;2.58;1.67;;;19.60;99.90;;;;;;5084295;28;20097;-76
2023/09/09 03:48:35;;;;;;;3.22;1.88;;;19.50;99.90;;;;;;5068008;28;20128;-76
2023/09/09 03:51:03;;;;;;;3.70;1.60;;;19.50;99.90;;;;;;5087184;28;20056;-76
2023/09/09 03:53:29;;;;;;;2.67;1.67;;;19.40;99.90;;;;;;5087985;28;20055;-76
2023/09/09 03:56:01;;;;;;;2.70;1.60;;;19.40;99.90;;;;;;5090176;28;20147;-76
2023/09/09 03:58:27;;;;;;;1.75;1.60;;;19.40;99.90;;;;;;5087820;28;20040;-76
2023/09/09 04:01:08;;;;;;;1.90;1.42;;;19.40;99.90;;;;;;5090240;28;20058;-76
2023/09/09 04:03:36;;;;;;;3.17;1.40;;;19.40;99.90;;;;;;5089680;28;20131;-76
2023/09/09 04:06:06;;;;;;;2.13;1.65;;;19.30;99.90;;;;;;5088713;28;20048;-76
2023/09/09 04:08:33;;;;;;;1.65;1.17;;;19.30;99.90;;;;;;5089456;28;20768;-76
2023/09/09 04:11:00;;;;;;;1.63;1.20;;;19.30;99.90;;;;;;5055180;28;20105;-76
2023/09/09 04:13:27;;;;;;;1.70;1.30;;;19.30;99.90;;;;;;5087987;28;20046;-75
2023/09/09 04:15:57;;;;;;;1.80;1.48;;;19.30;99.90;;;;;;5088412;28;20047;-75
2023/09/09 04:18:24;;;;;;;2.08;1.65;;;19.20;99.90;;;;;;5088770;28;20048;-76
2023/09/09 04:21:11;;;;;;;2.45;1.55;;;19.30;99.90;;;;;;5074749;28;20136;-76
2023/09/09 04:23:38;;;;;;;4.63;2.00;;;19.20;99.90;;;;;;5087596;28;20052;-75
2023/09/09 04:26:06;;;;;;;3.42;1.75;;;19.20;99.90;;;;;;5089622;28;20690;-75
2023/09/09 04:28:33;;;;;;;1.70;1.58;;;19.20;99.90;;;;;;5087026;28;20059;-75
2023/09/09 04:31:00;;;;;;;2.00;1.40;;;19.20;99.90;;;;;;5089691;28;20140;-76
2023/09/09 04:33:27;;;;;;;2.45;1.70;;;19.20;99.90;;;;;;5087368;28;20051;-76
2023/09/09 04:35:54;;;;;;;1.73;1.40;;;19.20;99.90;;;;;;5088128;28;20055;-76
2023/09/09 04:38:23;;;;;;;1.83;1.40;;;19.20;99.90;;;;;;5087476;28;20566;-76
2023/09/09 04:40:49;;;;;;;1.73;1.33;;;19.10;99.90;;;;;;5087616;28;20138;-76
2023/09/09 04:43:17;;;;;;;1.73;1.48;;;19.10;99.90;;;;;;5087406;28;20518;-75
2023/09/09 04:45:45;;;;;;;1.52;1.40;;;19.00;99.90;;;;;;5089240;28;20655;-75
2023/09/09 04:48:12;;;;;;;1.73;1.40;;;19.00;99.90;;;;;;5081073;28;20056;-75
2023/09/09 04:50:39;;;;;;;1.80;1.42;;;19.00;99.90;;;;;;5077746;28;20075;-76
2023/09/09 04:53:07;;;;;;;1.60;1.45;;;18.90;99.90;;;;;;5086420;28;20051;-76
2023/09/09 04:55:34;;;;;;;1.42;1.17;;;18.90;99.90;;;;;;5085911;28;20055;-75
2023/09/09 04:58:02;;;;;;;2.30;1.40;;;18.90;99.90;;;;;;5084141;28;20127;-75
2023/09/09 05:00:29;;;;;;;1.95;1.75;;;18.80;99.90;;;;;;5087312;28;20063;-77
2023/09/09 05:02:56;;;;;;;1.95;1.60;;;18.80;99.90;;;;;;5066054;28;20109;-75
2023/09/09 05:05:23;;;;;;;1.75;1.40;;;18.80;99.90;;;;;;5083728;28;20150;-75
2023/09/09 05:07:49;;;;;;;1.60;1.30;;;18.80;99.90;;;;;;5083081;28;20040;-76
2023/09/09 05:10:18;;;;;;;1.95;1.63;;;18.80;99.90;;;;;;5083265;28;20563;-76
2023/09/09 05:12:45;;;;;;;1.55;1.45;;;18.90;99.90;;;;;;5083435;28;20101;-76
2023/09/09 05:15:13;;;;;;;1.75;1.50;;;18.90;99.90;;;;;;5082338;28;20123;-75
2023/09/09 05:17:40;;;;;;;1.52;1.30;;;18.90;99.90;;;;;;5083681;28;20570;-76
2023/09/09 05:20:07;;;;;;;1.80;1.50;;;18.90;99.90;;;;;;5084858;28;20051;-75
2023/09/09 05:22:34;;;;;;;1.42;1.33;;;18.90;99.90;;;;;;5068509;28;20052;-75
2023/09/09 05:25:01;;;;;;;1.70;1.50;;;18.90;99.90;;;;;;5088149;28;20075;-75
2023/09/09 05:27:28;;;;;;;1.65;1.40;;;18.80;99.90;;;;;;5086730;28;20414;-75
2023/09/09 05:29:55;;;;;;;1.42;1.17;;;18.80;99.90;;;;;;5085244;28;20519;-74
2023/09/09 05:32:22;;;;;;;1.58;1.10;;;18.80;99.90;;;;;;5085803;28;20494;-74
2023/09/09 05:34:49;;;;;;;1.55;1.23;;;18.80;99.90;;;;;;5069640;28;20134;-75
2023/09/09 05:37:16;;;;;;;1.27;0.90;;;18.80;99.90;;;;;;5087698;28;20097;-75
2023/09/09 05:39:42;;;;;;;1.38;1.08;;;18.70;99.90;;;;;;5085503;28;20044;-76
2023/09/09 05:42:09;;;;;;;1.38;0.95;;;18.70;99.90;;;;;;5086187;28;20048;-74
2023/09/09 05:44:36;;;;;;;1.40;1.17;;;18.80;99.90;;;;;;5085894;28;20126;-75
2023/09/09 05:47:06;;;;;;;0.98;0.88;;;18.80;99.90;;;;;;5087731;28;20066;-75
2023/09/09 05:49:33;;;;;;;1.02;0.93;;;18.80;99.90;;;;;;5086172;28;20040;-74
2023/09/09 05:52:06;;;;;;;1.00;0.90;;;18.90;99.90;;;;;;5082286;28;20453;-74
2023/09/09 05:54:33;;;;;;;1.10;1.00;;;18.90;99.90;;;;;;5062292;28;20289;-74
2023/09/09 05:57:00;;;;;;;1.30;0.98;;;18.90;99.90;;;;;;5047111;28;20048;-74
2023/09/09 05:59:26;;;;;;;1.20;1.00;;;18.90;99.90;;;;;;5073919;28;20123;-75
2023/09/09 06:01:53;;;;;;;1.15;0.93;;;18.90;99.90;;;;;;5085646;28;20060;-74
2023/09/09 06:04:20;;;;;;;1.33;1.02;;;18.90;99.90;;;;;;5079900;28;20164;-76
2023/09/09 06:06:47;;;;;;;1.00;0.80;;;18.90;99.90;;;;;;5085763;28;20078;-75
2023/09/09 06:09:14;;;;;;;1.38;0.90;;;18.90;99.90;;;;;;5085936;28;20101;-75
2023/09/09 06:11:41;;;;;;;1.23;1.00;;;19.00;99.90;;;;;;5086740;28;20055;-76
2023/09/09 06:14:08;;;;;;;1.27;1.10;;;19.00;99.90;;;;;;5083623;28;20434;-75
2023/09/09 06:16:35;;;;;;;1.20;1.00;;;19.10;99.90;;;;;;5062375;28;20043;-76
2023/09/09 06:19:02;;;;;;;1.30;1.13;;;19.20;99.90;;;;;;5077476;28;20044;-76
2023/09/09 06:21:29;;;;;;;1.55;1.15;;;19.20;99.90;;;;;;5080708;28;20418;-76
2023/09/09 06:23:55;;;;;;;1.63;1.33;;;19.30;99.90;;;;;;5074517;28;20036;-76
2023/09/09 06:26:22;;;;;;;1.50;1.30;;;19.30;99.90;;;;;;5080937;28;20105;-75
2023/09/09 06:28:49;;;;;;;1.92;1.30;;;19.40;99.90;;;;;;5077917;28;20043;-75
2023/09/09 06:31:16;;;;;;;1.60;1.30;;;19.40;99.90;;;;;;5075857;28;20052;-75
2023/09/09 06:33:43;;;;;;;2.13;1.42;;;19.50;99.90;;;;;;5080464;28;20040;-75
2023/09/09 06:36:11;;;;;;;1.42;1.27;;;19.60;99.90;;;;;;5076220;28;20052;-75
2023/09/09 06:38:38;;;;;;;1.33;1.20;;;19.60;99.90;;;;;;5073977;28;20040;-75
2023/09/09 06:41:05;;;;;;;1.45;1.20;;;19.70;99.90;;;;;;5077119;28;20044;-77
2023/09/09 06:43:31;;;;;;;1.40;1.05;;;19.80;99.90;;;;;;5073786;28;20055;-77
2023/09/09 06:46:00;;;;;;;1.63;1.20;;;19.80;99.90;;;;;;5079535;28;20044;-76
2023/09/09 06:48:28;;;;;;;1.48;1.08;;;19.90;99.90;;;;;;5077586;28;20482;-77
2023/09/09 06:50:56;;;;;;;1.75;1.30;;;20.00;99.90;;;;;;5045458;28;20051;-76
2023/09/09 06:53:24;;;;;;;1.70;1.25;;;20.10;99.90;;;;;;5076322;28;20889;-76
2023/09/09 06:55:51;;;;;;;1.70;1.50;;;20.10;99.90;;;;;;5076637;28;20056;-75
2023/09/09 06:58:18;;;;;;;1.60;1.20;;;20.20;99.90;;;;;;5072909;28;20157;-74
2023/09/09 07:00:51;;;;;;;2.20;1.58;;;20.30;99.90;;;;;;5074775;28;20109;-74
2023/09/09 07:03:19;;;;;;;1.50;1.02;;;20.40;99.90;;;;;;5074538;28;20052;-75
2023/09/09 07:05:46;;;;;;;1.58;1.20;;;20.50;99.90;;;;;;5059701;28;20048;-75
2023/09/09 07:08:13;;;;;;;1.60;1.50;;;20.50;99.90;;;;;;5078904;28;20044;-75
2023/09/09 07:10:54;;;;;;;1.40;1.30;;;20.60;99.90;;;;;;5078564;28;20103;-75
2023/09/09 07:13:23;;;;;;;1.30;1.20;;;20.70;99.90;;;;;;5069003;28;20059;-75
2023/09/09 07:15:53;;;;;;;1.50;1.15;;;20.80;99.90;;;;;;5077782;28;20052;-75
2023/09/09 07:18:21;;;;;;;1.58;1.33;;;20.90;99.90;;;;;;5078464;28;20051;-75
2023/09/09 07:20:48;;;;;;;1.63;1.15;;;21.00;99.90;;;;;;5079145;28;20143;-75
2023/09/09 07:23:16;;;;;;;1.80;1.55;;;21.00;99.90;;;;;;5059449;28;20056;-75
2023/09/09 07:25:43;;;;;;;1.52;1.20;;;21.10;99.60;;;;;;5077028;28;20109;-75
2023/09/09 07:28:11;;;;;;;1.70;1.30;;;21.20;99.90;;;;;;5082351;28;20044;-75
2023/09/09 07:30:38;;;;;;;1.40;1.15;;;21.30;99.90;;;;;;5084225;28;20048;-75
2023/09/09 07:33:04;;;;;;;1.88;1.30;;;21.30;99.90;;;;;;5083132;28;20051;-76
2023/09/09 07:35:33;;;;;;;1.48;1.10;;;21.40;54.00;;;;;;5083580;28;20075;-74
2023/09/09 07:38:00;;;;;;;1.73;1.40;;;21.50;1.00;;;;;;5084044;28;20089;-75
2023/09/09 07:40:27;;;;;;;1.33;1.15;;;21.60;1.00;;;;;;5083510;28;20048;-75
2023/09/09 07:42:54;;;;;;;1.30;0.95;;;21.70;1.00;;;;;;5083879;28;20044;-75
2023/09/09 07:45:21;;;;;;;1.48;1.17;;;21.80;1.00;;;;;;5077730;28;20493;-75
2023/09/09 07:47:48;;;;;;;1.27;1.08;;;21.80;99.90;;;;;;5075481;28;20597;-75
2023/09/09 07:50:14;;;;;;;1.95;1.00;;;21.90;99.90;;;;;;5079746;28;20051;-74
2023/09/09 07:52:41;;;;;;;1.10;0.90;;;22.00;99.90;;;;;;5080614;28;20059;-74
2023/09/09 07:55:08;;;;;;;1.75;1.13;;;22.10;1.00;;;;;;5085569;28;20598;-75
2023/09/09 07:57:35;;;;;;;1.20;1.10;;;22.20;1.00;;;;;;5087437;28;20048;-75
2023/09/09 08:00:03;;;;;;;2.03;1.40;;;22.30;99.90;;;;;;5084395;28;20459;-74
2023/09/09 08:02:31;;;;;;;1.10;0.90;;;22.40;99.90;;;;;;5069053;28;20044;-75
2023/09/09 08:04:57;;;;;;;0.60;0.60;;;22.50;53.60;;;;;;5085716;28;20052;-75
2023/09/09 08:07:24;;;;;;;0.82;0.80;;;22.60;99.90;;;;;;5068853;28;20060;-75
2023/09/09 08:09:51;;;;;;;1.35;1.08;;;22.70;99.90;;;;;;5084052;28;20048;-75
2023/09/09 08:12:18;;;;;;;1.40;1.00;;;22.80;1.00;;;;;;5080224;28;20088;-75
2023/09/09 08:14:45;;;;;;;1.40;1.00;;;22.90;1.00;;;;;;5082134;28;20082;-75
2023/09/09 08:17:11;;;;;;;1.02;0.90;;;23.00;99.90;;;;;;5086116;28;20060;-74
2023/09/09 08:19:38;;;;;;;1.10;0.80;;;23.00;99.90;;;;;;5085527;28;20067;-74
2023/09/09 08:22:05;;;;;;;1.13;0.90;;;23.10;20.20;;;;;;5070056;28;20044;-74
2023/09/09 08:24:32;;;;;;;0.90;0.77;;;23.20;1.00;;;;;;5068554;28;20054;-75
2023/09/09 08:26:59;;;;;;;0.95;0.80;;;23.30;1.00;;;;;;5066997;28;20044;-74
2023/09/09 08:29:26;;;;;;;1.17;0.80;;;23.40;1.00;;;;;;5085323;28;20044;-85
2023/09/09 08:31:53;;;;;;;1.05;0.90;;;23.50;1.00;;;;;;5080165;28;20072;-74
2023/09/09 08:34:20;;;;;;;0.65;0.63;;;23.60;1.00;;;;;;5079469;28;20055;-75
2023/09/09 08:36:47;;;;;;;1.33;1.00;;;23.70;1.00;;;;;;5082140;28;20558;-75
2023/09/09 08:39:14;;;;;;;0.80;0.80;;;23.90;1.00;;;;;;5062654;28;20644;-74
2023/09/09 08:41:46;;;;;;;0.68;0.68;;;24.00;99.90;;;;;;5086406;28;20081;-75
2023/09/09 08:44:13;;;;;;;;;;;24.20;99.90;;;;;;5079517;28;20044;-75
2023/09/09 08:46:40;;;;;;;1.38;1.10;;;24.20;99.90;;;;;;5081319;28;19963;-75
2023/09/09 08:49:06;;;;;;;0.70;0.70;;;24.40;99.90;;;;;;5082938;28;20075;-75
2023/09/09 08:51:54;;;;;;;0.68;0.68;;;24.40;99.90;;;;;;5061897;28;20372;-75
2023/09/09 08:54:21;;;;;;;0.95;0.75;;;24.50;99.90;;;;;;5065469;28;20463;-74
2023/09/09 08:56:48;;;;;;;0.88;0.65;;;24.60;99.90;;;;;;5059639;28;20051;-75
2023/09/09 08:59:14;;;;;;;0.88;0.70;;;24.70;99.90;;;;;;5097284;28;20048;-75
2023/09/09 09:01:41;;;;;;;1.00;0.90;;;24.80;99.90;;;;;;5067914;28;20185;-75
2023/09/09 09:04:08;;;;;;;0.82;0.68;;;24.90;99.90;;;;;;5067934;28;20058;-74
2023/09/09 09:06:37;;;;;;;0.90;0.70;;;24.90;99.90;;;;;;5084700;28;20127;-75
2023/09/09 09:09:04;;;;;;;1.35;0.98;;;25.00;99.90;;;;;;5085776;28;20047;-75
2023/09/09 09:11:31;;;;;;;1.15;0.90;;;25.00;99.90;;;;;;5086117;28;20140;-75
2023/09/09 09:14:10;;;;;;;1.17;0.80;;;25.20;99.90;;;;;;5082542;28;20066;-74
2023/09/09 09:16:39;;;;;;;1.00;0.80;;;25.20;99.90;;;;;;5082036;28;20106;-74
2023/09/09 09:19:06;;;;;;;0.68;0.65;;;25.30;99.90;;;;;;5066893;28;20040;-75
2023/09/09 09:21:35;;;;;;;0.98;0.88;;;25.40;99.90;;;;;;5079131;28;20055;-75
2023/09/09 09:24:02;;;;;;;0.68;0.57;;;25.50;99.90;;;;;;5082663;28;21025;-74
2023/09/09 09:26:29;;;;;;;1.25;0.80;;;25.50;99.90;;;;;;5083563;28;20140;-75
2023/09/09 09:28:56;;;;;;;1.25;1.13;;;25.60;99.90;;;;;;5083414;28;20125;-76
2023/09/09 09:31:24;;;;;;;1.30;1.10;;;25.70;99.90;;;;;;5078524;28;20056;-75
2023/09/09 09:33:52;;;;;;;1.35;0.90;;;25.80;99.90;;;;;;5042143;28;20705;-76
2023/09/09 09:36:19;;;;;;;1.20;1.10;;;25.90;99.90;;;;;;5081886;28;20071;-75
2023/09/09 09:38:46;;;;;;;1.42;1.27;;;26.10;99.90;;;;;;5080163;28;20048;-76
2023/09/09 09:41:13;;;;;;;0.73;0.73;;;26.10;99.90;;;;;;5065157;28;20048;-76
2023/09/09 09:43:40;;;;;;;1.10;1.00;;;26.20;99.90;;;;;;5044114;28;20048;-76
2023/09/09 09:46:17;;;;;;;0.98;0.82;;;26.30;99.90;;;;;;5096295;28;20055;-75
2023/09/09 09:48:44;;;;;;;1.00;0.80;;;26.40;99.90;;;;;;5083047;28;20056;-75
2023/09/09 09:51:11;;;;;;;0.70;0.68;;;26.50;99.90;;;;;;5062645;28;20068;-75
2023/09/09 09:53:56;;;;;;;1.42;0.75;;;26.60;99.90;;;;;;5065288;28;20044;-75
2023/09/09 09:56:23;;;;;;;1.20;1.10;;;26.70;99.90;;;;;;5082209;28;20066;-75
2023/09/09 09:58:50;;;;;;;1.10;1.00;;;26.70;99.90;;;;;;5081566;28;20078;-75
2023/09/09 10:01:17;;;;;;;0.80;0.70;;;26.80;99.90;;;;;;5075952;28;20135;-75
2023/09/09 10:03:47;;;;;;;0.70;0.65;;;26.90;99.90;;;;;;5079240;28;20147;-75
2023/09/09 10:06:21;;;;;;;1.33;0.90;;;27.00;99.90;;;;;;5084372;28;20076;-75
2023/09/09 10:09:10;;;;;;;0.85;0.70;;;27.10;99.90;;;;;;5061429;28;20131;-75
2023/09/09 10:11:43;;;;;;;1.05;0.95;;;27.30;99.90;;;;;;5063340;28;20080;-75
2023/09/09 10:14:16;;;;;;;2.58;1.00;;;27.40;99.90;;;;;;5074123;28;20055;-75
2023/09/09 10:16:43;;;;;;;1.52;1.13;;;27.50;99.90;;;;;;5079424;28;20052;-75
2023/09/09 10:19:11;;;;;;;0.88;0.82;;;27.60;99.90;;;;;;5083420;28;20487;-75
2023/09/09 10:21:39;;;;;;;0.98;0.90;;;27.70;99.90;;;;;;5066808;28;20188;-75
2023/09/09 10:24:08;;;;;;;1.10;1.00;;;27.80;99.90;;;;;;5066282;28;20055;-75
2023/09/09 10:26:36;;;;;;;1.33;0.90;;;27.90;99.90;;;;;;5045182;28;20067;-75
2023/09/09 10:29:03;;;;;;;1.08;0.90;;;28.00;99.90;;;;;;5078339;28;20052;-75
2023/09/09 10:31:30;;;;;;;1.00;0.88;;;28.10;99.90;;;;;;5065097;28;20093;-75
2023/09/09 10:33:57;;;;;;;1.00;0.90;;;28.20;99.90;;;;;;5079265;28;20051;-75
2023/09/09 10:36:24;;;;;;;0.93;0.80;;;28.30;99.90;;;;;;5081356;28;20102;-75
2023/09/09 10:38:54;;;;;;;0.95;0.90;;;28.40;99.90;;;;;;5083473;28;20059;-74
2023/09/09 10:41:20;;;;;;;1.08;0.98;;;28.50;99.90;;;;;;5074266;28;20137;-75
2023/09/09 10:43:47;;;;;;;1.30;0.98;;;28.50;99.90;;;;;;5071589;28;20101;-75
2023/09/09 10:46:14;;;;;;;1.70;1.45;;;28.60;99.90;;;;;;5065290;28;20808;-75
2023/09/09 10:48:44;;;;;;;1.10;1.00;;;28.60;99.90;;;;;;5064736;28;20044;-75
2023/09/09 10:51:13;;;;;;;2.42;1.10;;;28.60;99.90;;;;;;5080140;28;20160;-75
2023/09/09 10:53:39;;;;;;;1.00;0.90;;;28.80;99.90;;;;;;5081380;28;20051;-75
2023/09/09 10:56:25;;;;;;;1.95;1.42;;;28.90;99.90;;;;;;5082526;28;20044;-75
2023/09/09 10:58:52;;;;;;;1.42;1.05;;;29.10;99.90;;;;;;5072900;28;20762;-75
2023/09/09 11:01:25;;;;;;;1.98;1.23;;;29.20;99.90;;;;;;5073371;28;20488;-75
2023/09/09 11:03:52;;;;;;;1.58;1.00;;;29.20;99.90;;;;;;5074890;28;20662;-75
2023/09/09 11:06:21;;;;;;;2.70;2.10;;;29.30;99.90;;;;;;5083352;28;20067;-75
2023/09/09 11:08:48;;;;;;;2.55;1.63;;;29.50;99.90;;;;;;5082327;28;20040;-75
2023/09/09 11:11:22;;;;;;;2.72;1.45;;;29.60;99.90;;;;;;5083706;28;20519;-75
2023/09/09 11:13:59;;;;;;;1.63;1.15;;;29.80;99.90;;;;;;5083686;28;20063;-75
2023/09/09 11:16:41;;;;;;;1.20;1.00;;;29.90;99.90;;;;;;5083470;28;20096;-75
2023/09/09 11:19:13;;;;;;;1.40;1.10;;;29.90;99.90;;;;;;5083101;28;20090;-76
2023/09/09 11:21:52;;;;;;;0.80;0.80;;;30.00;99.90;;;;;;5065611;28;20086;-76
2023/09/09 11:24:19;;;;;;;0.70;0.70;;;30.20;99.90;;;;;;5064433;28;20052;-76
2023/09/09 11:26:50;;;;;;;1.27;0.93;;;30.30;99.90;;;;;;5076593;28;20052;-76
2023/09/09 11:29:18;;;;;;;1.67;1.20;;;30.50;99.90;;;;;;5076189;28;20059;-76
2023/09/09 11:32:02;;;;;;;1.75;1.30;;;30.70;99.90;;;;;;5066635;28;20044;-76
2023/09/09 11:34:31;;;;;;;1.83;1.40;;;30.80;99.90;;;;;;5078745;28;20056;-76
2023/09/09 11:37:03;;;;;;;1.42;1.23;;;31.10;99.90;;;;;;5080077;28;20062;-76
2023/09/09 11:39:30;;;;;;;1.20;1.10;;;31.30;99.90;;;;;;5048379;28;20079;-76
2023/09/09 11:41:57;;;;;;;1.10;1.00;;;31.50;99.90;;;;;;5062744;28;20676;-77
2023/09/09 11:44:23;;;;;;;1.55;0.93;;;31.80;99.90;;;;;;5076329;28;20052;-76
2023/09/09 11:46:50;;;;;;;1.05;0.90;;;32.10;99.90;;;;;;5079420;28;20048;-76
2023/09/09 11:49:17;;;;;;;1.10;0.95;;;32.40;99.90;;;;;;5081779;28;20087;-77
2023/09/09 11:51:44;;;;;;;1.10;0.95;;;32.60;99.90;;;;;;5081526;28;20059;-77
2023/09/09 11:54:19;;;;;;;1.48;1.15;;;32.60;99.90;;;;;;5064418;28;20113;-76
2023/09/09 11:56:46;;;;;;;1.67;1.20;;;32.60;99.90;;;;;;5045005;28;20044;-76
2023/09/09 11:59:13;;;;;;;2.78;1.20;;;32.60;99.90;;;;;;5078257;28;20574;-77
2023/09/09 12:01:44;;;;;;;1.50;1.20;;;32.60;99.90;;;;;;5074728;28;20148;-77
2023/09/09 12:04:12;;;;;;;1.40;1.20;;;32.80;99.90;;;;;;5058065;28;20048;-76
2023/09/09 12:06:39;;;;;;;1.42;1.30;;;33.10;99.90;;;;;;5073372;28;20512;-76
2023/09/09 12:09:06;;;;;;;1.30;1.13;;;33.30;99.90;;;;;;5058736;28;20144;-76
2023/09/09 12:11:34;;;;;;;1.85;1.35;;;33.50;99.90;;;;;;5042360;28;20055;-75
2023/09/09 12:14:01;;;;;;;1.35;1.15;;;33.70;99.90;;;;;;5060953;28;20040;-75
2023/09/09 12:16:29;;;;;;;1.80;1.20;;;34.00;99.90;;;;;;5060624;28;20048;-77
2023/09/09 12:18:56;;;;;;;1.50;1.20;;;34.40;99.90;;;;;;5063233;28;20052;-77
2023/09/09 12:21:25;;;;;;;1.60;1.23;;;34.50;99.90;;;;;;5079192;28;20052;-77
2023/09/09 12:23:57;;;;;;;1.05;0.90;;;34.60;99.90;;;;;;5074140;28;20052;-76
2023/09/09 12:26:24;;;;;;;1.30;1.20;;;34.80;99.90;;;;;;5060323;28;20072;-77
2023/09/09 12:29:11;;;;;;;1.20;0.98;;;35.20;99.90;;;;;;5077678;28;20047;-76
2023/09/09 12:31:54;;;;;;;3.60;1.48;;;35.30;99.90;;;;;;5074073;28;20201;-74
2023/09/09 12:34:22;;;;;;;1.08;0.90;;;35.40;99.90;;;;;;5080910;28;20221;-75
2023/09/09 12:36:49;;;;;;;1.65;1.30;;;35.50;99.90;;;;;;5079071;28;20597;-74
2023/09/09 12:39:26;;;;;;;1.45;1.08;;;35.70;99.90;;;;;;5063664;28;20134;-76
2023/09/09 12:42:06;;;;;;;1.75;1.10;;;36.00;99.90;;;;;;5091356;28;20668;-76
2023/09/09 12:44:46;;;;;;;1.08;0.85;;;36.10;99.90;;;;;;5092940;28;20040;-76
2023/09/09 12:47:18;;;;;;;2.58;1.20;;;36.00;99.90;;;;;;5073316;28;20074;-77
2023/09/09 12:49:45;;;;;;;1.88;1.30;;;36.10;99.90;;;;;;5078307;28;20131;-77
2023/09/09 12:52:12;;;;;;;1.50;1.17;;;36.20;99.90;;;;;;5080548;28;20048;-76